Time;durP1;ratioP1;P1;durP2;ratioP2;P2;SDS_P1;SDS_P2;PMS_P1;PMS_P2;Temp;Humidity;BMP_temperature;BMP_pressure;BME280_temperature;BME280_humidity;BME280_pressure;Samples;Min_cycle;Max_cycle;Signal;HPM_P1;HPM_P2
2022/06/29 00:02:16;;;;;;;3.92;3.22;;;;;;;23.30;56.52;93389.19;4663565;30;20070;-88
2022/06/29 00:04:42;;;;;;;3.95;3.40;;;;;;;23.29;56.69;93375.94;4664920;30;20509;-86
2022/06/29 00:07:07;;;;;;;3.40;3.05;;;;;;;23.30;56.81;93388.44;4663739;30;20048;-88
2022/06/29 00:09:32;;;;;;;3.65;3.20;;;;;;;23.28;56.46;93389.00;4695875;30;20119;-88
2022/06/29 00:11:58;;;;;;;3.47;3.05;;;;;;;23.29;56.89;93375.94;4692555;30;20844;-88
2022/06/29 00:14:23;;;;;;;4.40;3.20;;;;;;;23.31;56.76;93379.63;4649662;30;20149;-88
2022/06/29 00:16:49;;;;;;;3.67;2.60;;;;;;;23.28;56.59;93366.91;4631939;30;20570;-87
2022/06/29 00:19:14;;;;;;;4.55;3.20;;;;;;;23.29;56.72;93362.88;4627638;30;20106;-89
2022/06/29 00:21:40;;;;;;;5.38;3.20;;;;;;;23.29;56.82;93368.41;4621743;30;21361;-88
2022/06/29 00:24:05;;;;;;;3.05;2.70;;;;;;;23.30;56.57;93367.13;4601961;30;20076;-88
2022/06/29 00:26:31;;;;;;;3.53;3.03;;;;;;;23.27;56.58;93368.19;4635134;30;20179;-88
2022/06/29 00:28:56;;;;;;;3.33;3.00;;;;;;;23.29;56.87;93362.16;4613190;30;20054;-88
2022/06/29 00:31:22;;;;;;;3.55;2.85;;;;;;;23.29;56.52;93351.84;4637920;30;20091;-88
2022/06/29 00:33:47;;;;;;;4.53;3.35;;;;;;;23.27;56.64;93339.88;4679252;30;20057;-88
2022/06/29 00:36:13;;;;;;;3.20;2.85;;;;;;;23.28;56.45;93346.88;4659865;30;20065;-88
2022/06/29 00:38:38;;;;;;;3.33;2.70;;;;;;;23.27;56.66;93357.16;4644124;30;20088;-88
2022/06/29 00:41:03;;;;;;;3.08;2.72;;;;;;;23.27;56.58;93353.66;4647860;30;20064;-87
2022/06/29 00:43:29;;;;;;;3.33;2.85;;;;;;;23.26;56.43;93352.94;4676226;30;20064;-88
2022/06/29 00:45:54;;;;;;;2.65;2.45;;;;;;;23.27;56.61;93359.94;4666582;30;20046;-87
2022/06/29 00:48:20;;;;;;;5.20;3.00;;;;;;;23.26;56.70;93355.69;4664346;30;20049;-88
2022/06/29 00:50:46;;;;;;;4.88;3.03;;;;;;;23.27;56.52;93356.44;4713684;30;21121;-87
2022/06/29 00:53:16;;;;;;;5.70;2.92;;;;;;;23.25;56.24;93363.22;4702331;30;20056;-87
2022/06/29 00:55:41;;;;;;;4.55;3.05;;;;;;;23.27;56.42;93361.94;4696361;30;20052;-88
2022/06/29 00:58:07;;;;;;;3.90;2.47;;;;;;;23.25;56.40;93359.72;4715142;30;20101;-88
2022/06/29 01:00:32;;;;;;;2.60;2.40;;;;;;;23.23;56.53;93346.47;4715731;30;20094;-87
2022/06/29 01:02:59;;;;;;;4.25;2.60;;;;;;;23.24;56.65;93355.50;4728468;30;20075;-88
2022/06/29 01:05:26;;;;;;;2.92;2.38;;;;;;;23.27;56.61;93345.41;4714829;30;20044;-88
2022/06/29 01:07:52;;;;;;;2.50;2.30;;;;;;;23.25;56.43;93338.41;4724291;30;20052;-87
2022/06/29 01:10:20;;;;;;;3.20;2.75;;;;;;;23.24;56.49;93334.16;4705155;30;20468;-88
2022/06/29 01:12:49;;;;;;;3.78;2.88;;;;;;;23.24;56.60;93336.19;4688147;30;20101;-88
2022/06/29 01:15:14;;;;;;;3.08;2.72;;;;;;;23.24;56.63;93330.66;4715270;30;20685;-88
2022/06/29 01:17:40;;;;;;;3.13;2.75;;;;;;;23.23;56.46;93323.69;4716397;30;20063;-88
2022/06/29 01:20:06;;;;;;;4.00;2.90;;;;;;;23.23;56.60;93331.94;4717315;30;20043;-88
2022/06/29 01:22:31;;;;;;;3.72;2.60;;;;;;;23.24;56.61;93323.13;4728054;30;20048;-88
2022/06/29 01:24:57;;;;;;;3.80;2.70;;;;;;;23.23;56.34;93318.16;4677507;30;20530;-88
2022/06/29 01:27:24;;;;;;;3.42;2.90;;;;;;;23.23;56.63;93316.16;4718599;30;20052;-88
2022/06/29 01:29:49;;;;;;;3.33;2.47;;;;;;;23.23;56.47;93326.44;4696725;30;20058;-87
2022/06/29 01:32:15;;;;;;;3.13;2.65;;;;;;;23.22;56.37;93328.47;4697174;30;20052;-88
2022/06/29 01:34:40;;;;;;;3.45;2.53;;;;;;;23.21;56.58;93307.66;4697094;30;20052;-88
2022/06/29 01:37:06;;;;;;;3.08;2.53;;;;;;;23.21;56.59;93309.69;4712666;30;20082;-87
2022/06/29 01:39:32;;;;;;;2.63;2.40;;;;;;;23.22;56.48;93320.19;4678074;30;20693;-88
2022/06/29 01:41:57;;;;;;;2.90;2.60;;;;;;;23.22;56.64;93322.94;4730904;30;20055;-89
2022/06/29 01:44:22;;;;;;;3.42;3.00;;;;;;;23.21;56.55;93323.47;4739382;30;20055;-87
2022/06/29 01:46:48;;;;;;;3.05;2.75;;;;;;;23.23;56.41;93320.91;4715442;30;20047;-87
2022/06/29 01:49:16;;;;;;;3.22;2.92;;;;;;;23.23;56.49;93316.16;4689421;30;20217;-87
2022/06/29 01:51:42;;;;;;;2.63;2.42;;;;;;;23.18;56.40;93314.28;4692909;30;20503;-88
2022/06/29 01:54:07;;;;;;;3.00;2.58;;;;;;;23.22;56.32;93324.97;4684435;30;20128;-88
2022/06/29 01:56:33;;;;;;;4.22;2.60;;;;;;;23.21;56.46;93315.94;4681449;30;20390;-87
2022/06/29 01:58:58;;;;;;;3.13;2.42;;;;;;;23.21;56.46;93318.72;4692103;30;20513;-88
2022/06/29 02:01:24;;;;;;;3.03;2.28;;;;;;;23.20;56.62;93319.25;4691778;30;20132;-88
2022/06/29 02:03:51;;;;;;;2.97;2.72;;;;;;;23.21;56.31;93323.47;4694507;30;20389;-87
2022/06/29 02:06:17;;;;;;;2.92;2.63;;;;;;;23.21;56.48;93329.00;4654361;30;20062;-88
2022/06/29 02:08:43;;;;;;;2.67;2.47;;;;;;;23.22;56.19;93333.97;4636431;30;20522;-88
2022/06/29 02:11:08;;;;;;;3.05;2.47;;;;;;;23.19;56.15;93337.81;4624188;30;20126;-87
2022/06/29 02:13:34;;;;;;;3.47;2.63;;;;;;;23.20;56.61;93339.28;4647038;30;20060;-88
2022/06/29 02:15:59;;;;;;;2.65;2.42;;;;;;;23.21;56.37;93331.75;4646871;30;20501;-88
2022/06/29 02:18:25;;;;;;;2.63;2.42;;;;;;;23.19;56.28;93345.34;4639491;30;20053;-88
2022/06/29 02:20:50;;;;;;;2.97;2.28;;;;;;;23.20;56.58;93344.06;4668316;30;20681;-87
2022/06/29 02:23:16;;;;;;;2.67;2.45;;;;;;;23.20;56.34;93338.56;4692716;30;20055;-89
2022/06/29 02:25:41;;;;;;;2.90;2.60;;;;;;;23.20;56.43;93342.06;4683593;30;21266;-88
2022/06/29 02:28:07;;;;;;;3.15;2.75;;;;;;;23.18;56.59;93327.31;4677508;30;20553;-87
2022/06/29 02:36:00;;;;;;;5.95;2.70;;;;;;;23.19;56.32;93320.53;4661995;30;20068;-88
2022/06/29 02:38:25;;;;;;;3.10;2.70;;;;;;;23.19;56.43;93306.75;4671570;30;20074;-87
2022/06/29 02:40:50;;;;;;;3.30;2.30;;;;;;;23.20;56.40;93302.69;4682462;30;20420;-88
2022/06/29 02:43:16;;;;;;;3.50;2.55;;;;;;;23.17;56.52;93310.03;4678837;30;20052;-88
2022/06/29 02:45:41;;;;;;;3.78;2.83;;;;;;;23.18;56.26;93300.50;4703579;30;20057;-87
2022/06/29 02:48:07;;;;;;;3.22;2.90;;;;;;;23.18;56.08;93299.75;4689587;30;20052;-87
2022/06/29 02:50:32;;;;;;;2.80;2.40;;;;;;;23.20;56.33;93291.66;4692177;30;20049;-87
2022/06/29 02:52:58;;;;;;;2.58;2.38;;;;;;;23.18;56.35;93300.50;4694410;30;20132;-87
2022/06/29 02:55:23;;;;;;;3.65;2.72;;;;;;;23.17;56.51;93290.75;4701234;30;20576;-87
2022/06/29 02:57:49;;;;;;;2.92;2.63;;;;;;;23.18;56.33;93297.72;4687649;30;20049;-87
2022/06/29 03:00:15;;;;;;;2.80;2.55;;;;;;;23.16;56.24;93294.06;4697562;30;20059;-87
2022/06/29 03:02:40;;;;;;;3.15;2.85;;;;;;;23.16;56.48;93292.03;4693058;30;21018;-89
2022/06/29 03:05:06;;;;;;;3.15;2.72;;;;;;;23.16;56.38;93297.56;4693079;30;20090;-87
2022/06/29 03:07:31;;;;;;;2.85;2.50;;;;;;;23.16;56.36;93297.56;4680351;30;20090;-87
2022/06/29 03:09:57;;;;;;;3.22;2.25;;;;;;;23.15;56.43;93309.88;4698628;30;20538;-87
2022/06/29 03:12:22;;;;;;;2.90;2.50;;;;;;;23.16;56.35;93319.63;4728810;29;20109;-87
2022/06/29 03:14:48;;;;;;;3.00;2.63;;;;;;;23.16;56.29;93325.13;4747749;30;20043;-87
2022/06/29 03:17:13;;;;;;;5.50;2.90;;;;;;;23.16;56.25;93321.66;4733362;29;20055;-87
2022/06/29 03:19:39;;;;;;;3.00;2.63;;;;;;;23.16;56.48;93338.94;4717134;30;20056;-87
2022/06/29 03:22:04;;;;;;;3.97;2.90;;;;;;;23.15;56.19;93331.19;4731855;29;20055;-88
2022/06/29 03:24:29;;;;;;;3.88;2.88;;;;;;;23.17;56.25;93353.44;4730609;30;20058;-87
2022/06/29 03:26:55;;;;;;;3.22;2.58;;;;;;;23.16;56.34;93352.72;4733104;30;20050;-88
2022/06/29 03:29:20;;;;;;;3.90;2.90;;;;;;;23.16;56.53;93366.50;4764560;29;20124;-87
2022/06/29 03:31:46;;;;;;;3.58;2.75;;;;;;;23.16;56.43;93352.72;4755408;30;20515;-88
2022/06/29 03:34:11;;;;;;;2.42;2.10;;;;;;;23.15;56.52;93364.28;4770934;29;20040;-87
2022/06/29 03:36:36;;;;;;;2.40;2.20;;;;;;;23.16;56.70;93346.47;4770420;29;20068;-87
2022/06/29 03:39:02;;;;;;;2.53;2.33;;;;;;;23.15;56.42;93354.00;4768870;30;20039;-87
2022/06/29 03:41:27;;;;;;;3.53;3.22;;;;;;;23.14;56.38;93347.00;4738737;30;20070;-88
2022/06/29 03:43:53;;;;;;;4.13;3.00;;;;;;;23.16;56.48;93349.22;4739514;30;20113;-88
2022/06/29 03:46:18;;;;;;;5.80;4.18;;;;;;;23.16;56.63;93333.41;4758299;29;20752;-86
2022/06/29 03:48:43;;;;;;;31.95;28.40;;;;;;;23.16;56.66;93310.63;4750500;29;20298;-86
2022/06/29 03:51:09;;;;;;;13.05;11.88;;;;;;;23.15;56.34;93304.34;4747396;29;20055;-86
2022/06/29 03:53:34;;;;;;;3.10;2.80;;;;;;;23.17;56.20;93307.28;4730995;30;20052;-87
2022/06/29 03:56:00;;;;;;;6.03;3.90;;;;;;;23.16;56.46;93322.38;4714085;30;20455;-88
2022/06/29 03:58:26;;;;;;;3.67;3.15;;;;;;;23.10;56.57;93321.78;4725652;30;20508;-87
2022/06/29 04:00:51;;;;;;;7.30;4.75;;;;;;;23.04;57.38;93317.69;4729806;30;20052;-88
2022/06/29 04:03:17;;;;;;;9.18;5.88;;;;;;;22.99;57.67;93329.63;4710713;29;20458;-88
2022/06/29 04:05:43;;;;;;;11.38;6.30;;;;;;;23.00;57.86;93339.38;4711727;30;20062;-87
2022/06/29 04:08:08;;;;;;;8.95;6.75;;;;;;;22.91;58.17;93332.34;4714693;29;20058;-88
2022/06/29 04:10:34;;;;;;;14.77;7.68;;;;;;;22.87;58.63;93337.47;4714898;30;20097;-87
2022/06/29 04:12:59;;;;;;;22.98;9.20;;;;;;;22.81;58.98;93342.38;4749627;29;20066;-87
2022/06/29 04:15:24;;;;;;;19.38;8.32;;;;;;;22.79;59.12;93342.19;4765678;29;20054;-88
2022/06/29 04:17:50;;;;;;;15.55;8.65;;;;;;;22.82;58.64;93335.59;4765524;30;20055;-87
2022/06/29 04:23:01;;;;;;;15.82;8.95;;;;;;;22.73;59.02;93338.81;4701557;30;20080;-88
2022/06/29 04:25:26;;;;;;;12.73;9.80;;;;;;;22.75;59.07;93352.78;4675742;30;20059;-88
2022/06/29 04:27:52;;;;;;;27.73;9.95;;;;;;;22.77;59.26;93356.50;4661663;30;20119;-88
2022/06/29 04:30:18;;;;;;;20.25;8.73;;;;;;;22.73;59.63;93356.09;4669563;30;20421;-90
2022/06/29 04:32:44;;;;;;;13.85;10.40;;;;;;;22.70;59.76;93367.47;4662882;30;20671;-93
2022/06/29 04:35:09;;;;;;;14.05;7.95;;;;;;;22.73;59.81;93374.66;4656454;30;20728;-87
2022/06/29 04:37:34;;;;;;;13.55;9.38;;;;;;;22.72;59.66;93367.66;4642596;30;20053;-86
2022/06/29 04:40:03;;;;;;;12.98;8.77;;;;;;;22.68;59.98;93376.25;4642727;30;20061;-94
2022/06/29 04:42:28;;;;;;;26.80;19.75;;;;;;;22.70;60.01;93381.25;4661002;30;20053;-86
2022/06/29 04:44:54;;;;;;;11.77;9.80;;;;;;;22.72;60.02;93386.94;4672037;30;20056;-89
2022/06/29 04:47:19;;;;;;;31.77;14.88;;;;;;;22.70;59.83;93398.50;4647272;30;20053;-86
2022/06/29 04:49:45;;;;;;;19.02;11.55;;;;;;;22.67;60.32;93391.31;4609570;30;20114;-89
2022/06/29 04:52:11;;;;;;;15.52;10.02;;;;;;;22.68;60.34;93389.31;4621663;30;20053;-89
2022/06/29 04:54:37;;;;;;;48.00;25.58;;;;;;;22.65;60.26;93382.13;4634705;30;20128;-87
2022/06/29 04:57:03;;;;;;;46.28;22.98;;;;;;;22.69;59.95;93377.75;4624457;30;20054;-91
2022/06/29 04:59:29;;;;;;;57.88;22.33;;;;;;;22.51;60.90;93384.22;4659657;30;20061;-90
2022/06/29 05:01:54;;;;;;;72.70;23.60;;;;;;;22.48;61.18;93385.28;4679364;30;20232;-87
2022/06/29 05:04:20;;;;;;;77.82;23.70;;;;;;;22.49;61.36;93376.50;4655435;30;20123;-89
2022/06/29 05:06:45;;;;;;;40.55;17.60;;;;;;;22.53;61.44;93382.38;4639879;30;20072;-85
2022/06/29 05:09:11;;;;;;;32.55;14.00;;;;;;;22.50;61.49;93386.22;4640471;30;20054;-85
2022/06/29 05:11:36;;;;;;;24.17;13.23;;;;;;;22.44;61.80;93377.34;4665751;30;20058;-86
2022/06/29 05:14:02;;;;;;;26.80;14.45;;;;;;;22.48;61.43;93385.28;4660335;30;20065;-92
2022/06/29 05:16:28;;;;;;;61.00;30.70;;;;;;;22.33;61.89;93398.91;4676511;30;20240;-86
2022/06/29 05:18:54;;;;;;;53.35;24.15;;;;;;;22.32;61.81;93381.66;4638561;30;20057;-86
2022/06/29 05:21:19;;;;;;;57.65;21.73;;;;;;;22.34;61.75;93379.09;4674422;30;20143;-90
2022/06/29 05:23:45;;;;;;;62.28;27.67;;;;;;;22.26;61.91;93367.28;4651915;30;20122;-86
2022/06/29 05:26:11;;;;;;;56.15;21.92;;;;;;;22.27;62.31;93385.28;4683146;30;20059;-86
2022/06/29 05:28:37;;;;;;;21.05;11.75;;;;;;;22.33;62.24;93396.91;4700892;30;21599;-85
2022/06/29 05:31:02;;;;;;;19.40;11.85;;;;;;;22.34;62.22;93403.88;4714613;30;20055;-89
2022/06/29 05:33:36;;;;;;;25.80;14.05;;;;;;;22.19;62.50;93398.25;4703581;30;20155;-89
2022/06/29 05:36:05;;;;;;;26.20;15.02;;;;;;;22.22;62.37;93422.69;4765924;24;20997;-88
2022/06/29 05:38:31;;;;;;;25.95;14.02;;;;;;;22.23;61.47;93423.44;4792243;29;20047;-90
2022/06/29 05:41:02;;;;;;;36.92;18.15;;;;;;;22.08;62.38;93443.28;4785970;29;20137;-90
2022/06/29 05:43:29;;;;;;;26.25;10.68;;;;;;;22.07;62.19;93439.06;4773076;29;20055;-89
2022/06/29 05:45:55;;;;;;;43.33;18.38;;;;;;;21.94;62.09;93419.03;4754225;29;20162;-92
2022/06/29 05:48:20;;;;;;;33.90;14.82;;;;;;;22.02;62.66;93409.63;4722249;29;20043;-92
2022/06/29 05:50:46;;;;;;;36.95;14.23;;;;;;;22.00;62.36;93403.16;4713992;29;20448;-89
2022/06/29 05:53:11;;;;;;;14.70;10.13;;;;;;;22.04;63.00;93398.09;4719297;29;20058;-87
2022/06/29 05:55:37;;;;;;;31.35;12.05;;;;;;;21.80;63.79;93393.59;4747028;29;20570;-88
2022/06/29 05:58:11;;;;;;;59.33;17.67;;;;;;;21.79;63.94;93335.06;4721352;29;20148;-92
2022/06/29 06:00:36;;;;;;;37.92;12.40;;;;;;;21.93;63.50;93321.25;4728068;29;21310;-92
2022/06/29 06:03:02;;;;;;;34.65;13.10;;;;;;;21.90;63.61;93293.50;4707887;29;20038;-87
2022/06/29 06:05:27;;;;;;;30.13;12.90;;;;;;;21.99;64.32;93292.31;4731700;29;20801;-88
2022/06/29 06:07:53;;;;;;;31.40;12.38;;;;;;;22.03;63.18;93300.25;4710782;29;20094;-86
2022/06/29 06:10:18;;;;;;;19.50;9.07;;;;;;;22.02;63.08;93301.53;4704399;29;20050;-90
2022/06/29 06:12:44;;;;;;;394.25;339.13;;;;;;;21.95;63.31;93321.44;4735421;29;20078;-88
2022/06/29 06:15:14;;;;;;;18.27;9.10;;;;;;;21.65;63.21;93344.63;4738317;29;20529;-93
2022/06/29 06:17:42;;;;;;;16.77;10.73;;;;;;;21.21;65.02;93360.06;4726188;29;20061;-90
2022/06/29 06:20:11;;;;;;;27.00;19.27;;;;;;;21.16;65.33;93350.63;4723460;29;20505;-93
2022/06/29 06:22:36;;;;;;;22.25;12.40;;;;;;;21.32;64.82;93359.81;4722984;29;20059;-91
2022/06/29 06:25:03;;;;;;;11.45;9.45;;;;;;;21.50;64.17;93371.97;4714677;29;20043;-88
2022/06/29 06:27:33;;;;;;;12.18;7.88;;;;;;;21.23;64.95;93426.22;4734165;29;20310;-88
2022/06/29 06:29:58;;;;;;;13.35;9.48;;;;;;;21.30;64.74;93452.38;4750610;29;20042;-88
2022/06/29 06:32:24;;;;;;;15.38;9.75;;;;;;;21.41;64.55;93461.16;4741127;29;20216;-88
2022/06/29 06:34:50;;;;;;;33.92;12.35;;;;;;;21.47;64.07;93447.28;4723766;29;20052;-88
2022/06/29 06:37:16;;;;;;;26.55;9.88;;;;;;;21.64;63.69;93482.72;4722744;29;20062;-89
2022/06/29 06:41:21;;;;;;;40.65;13.32;;;;;;;21.70;63.32;93480.59;4719374;29;20380;-87
2022/06/29 06:42:28;;;;;;;57.30;22.38;;;;;;;21.69;62.55;93446.09;4732641;30;20749;-87
2022/06/29 06:44:53;;;;;;;51.00;18.83;;;;;;;21.76;62.43;93470.22;4751746;30;20553;-87
2022/06/29 06:47:18;;;;;;;51.88;18.83;;;;;;;21.74;62.40;93505.78;4761032;24;20070;-88
2022/06/29 06:49:44;;;;;;;60.30;19.23;;;;;;;21.73;62.45;93496.78;4750145;29;20086;-89
2022/06/29 06:52:09;;;;;;;47.42;18.15;;;;;;;21.80;62.35;93471.38;4739067;29;20058;-88
2022/06/29 06:54:35;;;;;;;41.22;16.05;;;;;;;21.78;62.20;93457.41;4778995;24;20066;-90
2022/06/29 06:57:00;;;;;;;30.20;13.23;;;;;;;21.76;62.24;93443.44;4732035;30;20051;-89
2022/06/29 06:59:26;;;;;;;16.80;10.50;;;;;;;21.80;62.71;93410.84;4730926;30;20051;-88
2022/06/29 07:01:51;;;;;;;19.88;11.18;;;;;;;21.72;63.11;93404.50;4747496;30;20142;-89
2022/06/29 07:04:17;;;;;;;40.72;24.45;;;;;;;21.75;63.28;93397.94;4743798;30;20047;-88
2022/06/29 07:06:42;;;;;;;46.08;33.88;;;;;;;21.78;62.94;93385.88;4723205;30;20112;-87
2022/06/29 07:09:08;;;;;;;68.50;26.83;;;;;;;21.87;62.74;93376.41;4729666;30;20055;-88
2022/06/29 07:11:33;;;;;;;59.30;23.52;;;;;;;21.87;62.98;93374.38;4722275;30;20055;-88
2022/06/29 07:13:59;;;;;;;64.85;24.20;;;;;;;21.88;62.86;93367.59;4724745;30;20055;-89
2022/06/29 07:16:24;;;;;;;42.08;19.55;;;;;;;21.87;63.31;93385.41;4712066;30;20063;-89
2022/06/29 07:18:50;;;;;;;67.97;21.23;;;;;;;21.84;63.14;93378.22;4711142;30;20056;-93
2022/06/29 07:21:15;;;;;;;41.63;19.08;;;;;;;21.87;63.25;93357.88;4693362;30;20145;-88
2022/06/29 07:23:41;;;;;;;42.47;18.10;;;;;;;21.90;63.14;93361.56;4693709;30;20055;-95
2022/06/29 07:26:06;;;;;;;64.50;19.40;;;;;;;21.92;63.45;93352.78;4694083;30;20052;-91
2022/06/29 07:28:32;;;;;;;33.65;14.63;;;;;;;21.89;63.33;93365.59;4696681;30;20233;-90
2022/06/29 07:30:57;;;;;;;39.42;15.93;;;;;;;21.92;63.29;93377.56;4710024;30;20110;-91
2022/06/29 07:33:23;;;;;;;30.35;14.40;;;;;;;21.95;63.25;93402.00;4676599;30;20106;-88
2022/06/29 07:35:48;;;;;;;32.03;12.45;;;;;;;21.84;63.35;93411.25;4668338;30;20080;-88
2022/06/29 07:38:15;;;;;;;39.33;15.32;;;;;;;21.80;63.75;93397.06;4673692;30;20089;-89
2022/06/29 07:40:42;;;;;;;30.88;14.25;;;;;;;21.91;63.32;93390.56;4684132;30;20052;-92
2022/06/29 07:43:08;;;;;;;37.60;17.90;;;;;;;21.93;63.52;93407.28;4697819;30;20152;-87
2022/06/29 07:45:33;;;;;;;41.08;17.90;;;;;;;21.92;63.68;93407.84;4668928;30;20065;-87
2022/06/29 07:47:59;;;;;;;32.90;14.07;;;;;;;21.95;63.88;93418.50;4711807;30;20215;-89
2022/06/29 07:50:25;;;;;;;32.13;15.75;;;;;;;21.91;63.91;93423.59;4677239;30;20053;-88
2022/06/29 07:52:51;;;;;;;41.58;15.05;;;;;;;21.95;64.13;93426.03;4662492;30;20061;-86
2022/06/29 07:55:16;;;;;;;37.53;13.98;;;;;;;21.94;63.66;93422.53;4633579;30;20054;-86
2022/06/29 07:57:43;;;;;;;48.47;15.40;;;;;;;21.95;63.59;93429.53;4617479;30;20089;-88
2022/06/29 08:00:09;;;;;;;32.50;12.73;;;;;;;21.96;63.58;93408.25;4618718;30;20177;-89
2022/06/29 08:02:35;;;;;;;34.75;11.90;;;;;;;21.99;63.25;93415.44;4624697;30;20061;-87
2022/06/29 08:05:01;;;;;;;33.50;12.00;;;;;;;22.03;63.19;93432.41;4627229;30;20203;-90
2022/06/29 08:07:27;;;;;;;89.95;21.77;;;;;;;22.01;63.16;93451.47;4601778;30;20054;-86
2022/06/29 08:09:53;;;;;;;69.75;18.48;;;;;;;21.98;63.62;93449.75;4656655;30;20056;-87
2022/06/29 08:12:19;;;;;;;55.47;15.35;;;;;;;22.04;63.13;93447.66;4675980;30;20093;-86
2022/06/29 08:14:44;;;;;;;48.92;13.82;;;;;;;22.03;63.14;93446.91;4674854;30;20063;-86
2022/06/29 08:17:10;;;;;;;32.63;12.48;;;;;;;22.05;63.55;93436.09;4682786;30;20052;-88
2022/06/29 08:19:36;;;;;;;45.05;13.25;;;;;;;21.91;63.52;93412.59;4677527;30;20048;-88
2022/06/29 08:22:02;;;;;;;23.48;10.77;;;;;;;21.85;63.13;93373.47;4672567;30;20063;-86
2022/06/29 08:24:30;;;;;;;51.03;12.95;;;;;;;21.94;63.02;93383.25;4674288;30;20329;-92
2022/06/29 08:26:56;;;;;;;44.85;16.10;;;;;;;22.01;63.06;93369.63;4689028;30;20048;-88
2022/06/29 08:29:24;;;;;;;126.43;22.02;;;;;;;22.02;63.37;93373.84;4723426;30;20120;-91
2022/06/29 08:31:50;;;;;;;108.80;23.23;;;;;;;21.98;63.44;93345.16;4751512;30;20048;-93
2022/06/29 08:34:30;;;;;;;88.00;30.17;;;;;;;22.00;63.52;93339.84;4714903;30;20516;-93
2022/06/29 08:36:56;;;;;;;104.22;39.40;;;;;;;22.02;63.68;93338.06;4693096;30;20058;-91
2022/06/29 08:39:21;;;;;;;100.75;36.85;;;;;;;21.99;63.81;93336.34;4660172;30;20530;-89
2022/06/29 08:41:47;;;;;;;90.05;40.35;;;;;;;22.05;63.58;93359.03;4674739;30;20200;-93
2022/06/29 08:44:12;;;;;;;125.93;39.17;;;;;;;22.02;63.45;93351.09;4656086;30;20046;-91
2022/06/29 08:46:38;;;;;;;108.10;27.73;;;;;;;22.07;62.79;93372.25;4661509;30;20058;-93
2022/06/29 08:49:05;;;;;;;189.10;44.28;;;;;;;21.97;63.10;93371.94;4642409;30;20050;-91
2022/06/29 08:51:32;;;;;;;138.90;38.30;;;;;;;22.03;63.12;93372.59;4645254;30;20276;-90
2022/06/29 08:53:58;;;;;;;88.72;36.05;;;;;;;22.08;63.14;93382.72;4647580;30;21410;-91
2022/06/29 08:56:23;;;;;;;191.40;46.08;;;;;;;22.03;63.23;93377.34;4619972;30;20061;-88
2022/06/29 08:58:51;;;;;;;155.25;49.22;;;;;;;22.02;63.44;93381.38;4634968;30;20049;-87
2022/06/29 09:01:17;;;;;;;125.30;39.83;;;;;;;22.08;63.01;93379.97;4637257;30;20983;-89
2022/06/29 09:03:43;;;;;;;149.10;45.97;;;;;;;22.04;63.12;93382.31;4642609;30;20213;-91
2022/06/29 09:06:08;;;;;;;85.32;25.95;;;;;;;22.05;62.90;93394.06;4651672;30;20057;-88
2022/06/29 09:08:34;;;;;;;190.20;54.00;;;;;;;21.99;63.90;93396.91;4695823;30;20143;-88
2022/06/29 09:11:28;;;;;;;166.80;45.83;;;;;;;22.01;63.99;93393.66;4705164;30;20056;-90
2022/06/29 09:14:10;;;;;;;53.83;21.10;;;;;;;22.07;63.55;93408.78;4728237;30;20179;-88
2022/06/29 09:17:02;;;;;;;77.65;31.25;;;;;;;22.05;63.64;93385.81;4697925;30;20121;-89
2022/06/29 09:19:34;;;;;;;35.33;14.38;;;;;;;22.07;63.44;93397.78;4695855;30;20049;-84
2022/06/29 09:21:59;;;;;;;63.42;23.17;;;;;;;22.07;63.65;93394.28;4698593;30;20076;-85
2022/06/29 09:24:27;;;;;;;114.07;48.15;;;;;;;21.91;64.11;93398.84;4702101;30;20063;-87
2022/06/29 09:26:58;;;;;;;97.53;37.83;;;;;;;21.89;64.01;93404.88;4687327;30;20235;-86
2022/06/29 09:29:28;;;;;;;65.20;26.25;;;;;;;21.98;63.72;93406.44;4686806;30;20339;-87
2022/06/29 09:32:05;;;;;;;210.30;47.30;;;;;;;21.97;63.77;93420.75;4712794;30;20055;-89
2022/06/29 09:34:34;;;;;;;103.93;29.75;;;;;;;21.94;63.78;93419.78;4725241;30;21747;-88
2022/06/29 09:37:04;;;;;;;153.23;41.47;;;;;;;21.93;63.64;93421.06;4714687;30;20507;-86
2022/06/29 09:39:33;;;;;;;173.57;37.90;;;;;;;22.04;63.62;93414.63;4702859;30;20066;-88
2022/06/29 09:42:01;;;;;;;72.32;22.50;;;;;;;22.02;63.77;93417.91;4745657;30;20075;-88
2022/06/29 09:44:27;;;;;;;85.38;29.17;;;;;;;22.04;63.44;93398.09;4721778;30;20040;-86
2022/06/29 09:46:55;;;;;;;56.63;23.45;;;;;;;22.00;63.64;93384.66;4726759;30;20112;-87
2022/06/29 09:49:25;;;;;;;57.97;25.17;;;;;;;22.02;64.03;93395.13;4712725;30;20055;-87
2022/06/29 09:51:57;;;;;;;191.40;42.17;;;;;;;22.01;64.31;93386.13;4709233;30;20183;-85
2022/06/29 09:54:29;;;;;;;377.25;56.15;;;;;;;22.03;64.30;93386.34;4720792;30;20716;-85
2022/06/29 09:56:56;;;;;;;54.70;16.27;;;;;;;22.05;64.41;93394.06;4709758;30;21835;-86
2022/06/29 10:02:40;;;;;;;78.97;23.50;;;;;;;21.80;64.82;93386.06;4722344;30;20197;-87
2022/06/29 10:05:15;;;;;;;78.65;32.92;;;;;;;21.79;65.08;93351.56;4718678;30;20061;-85
2022/06/29 10:07:43;;;;;;;55.17;16.70;;;;;;;21.83;64.84;93345.75;4705966;30;20144;-87
2022/06/29 10:10:13;;;;;;;86.72;24.65;;;;;;;21.88;64.44;93334.59;4712533;29;20117;-86
2022/06/29 10:15:55;;;;;;;47.60;22.00;;;;;;;21.85;64.56;93288.91;4745707;30;20613;-86
2022/06/29 10:18:43;;;;;;;48.80;21.05;;;;;;;21.88;64.06;93254.03;4743913;29;20108;-85
2022/06/29 10:21:20;;;;;;;29.98;15.63;;;;;;;21.79;64.51;93271.78;4712671;30;20055;-86
2022/06/29 10:23:50;;;;;;;24.88;12.15;;;;;;;21.78;64.34;93297.81;4696206;30;20052;-85
2022/06/29 10:26:30;;;;;;;19.40;12.73;;;;;;;21.81;64.32;93318.03;4714434;30;20507;-86
2022/06/29 10:28:55;;;;;;;23.70;13.48;;;;;;;21.80;64.44;93333.78;4719844;30;20055;-86
2022/06/29 10:32:04;;;;;;;17.23;11.90;;;;;;;21.83;64.19;93331.97;4723066;30;20060;-86
2022/06/29 10:34:32;;;;;;;21.33;10.80;;;;;;;21.84;63.71;93339.72;4704311;30;20181;-86
2022/06/29 10:37:12;;;;;;;18.50;9.63;;;;;;;21.81;63.95;93365.53;4706641;30;20345;-86
2022/06/29 10:39:48;;;;;;;10.90;8.02;;;;;;;21.86;63.63;93388.72;4691128;30;20066;-85
2022/06/29 10:45:16;;;;;;;14.05;7.85;;;;;;;21.67;64.51;93424.59;4714022;30;20056;-87
2022/06/29 10:47:47;;;;;;;19.48;9.38;;;;;;;21.69;64.28;93389.06;4694717;30;20056;-86
2022/06/29 10:52:41;;;;;;;22.67;11.43;;;;;;;21.78;64.00;93273.03;4695866;30;20517;-87
2022/06/29 10:55:07;;;;;;;97.18;20.55;;;;;;;21.82;63.82;93262.44;4667337;30;20236;-86
2022/06/29 10:57:37;;;;;;;41.72;14.30;;;;;;;21.74;63.87;93256.13;4700559;30;20068;-89
2022/06/29 11:00:06;;;;;;;25.73;10.70;;;;;;;21.43;64.70;93265.38;4660031;30;20048;-90
2022/06/29 11:02:31;;;;;;;60.67;31.63;;;;;;;21.34;65.35;93276.81;4670597;30;20080;-86
2022/06/29 11:04:57;;;;;;;120.82;44.63;;;;;;;21.36;65.32;93261.25;4662382;30;20242;-86
2022/06/29 11:12:54;;;;;;;35.70;15.15;;;;;;;21.29;65.92;93281.16;4694573;30;20059;-87
2022/06/29 11:15:41;;;;;;;46.55;20.77;;;;;;;21.41;65.80;93290.66;4718494;30;20125;-86
2022/06/29 11:18:11;;;;;;;109.13;34.17;;;;;;;21.56;65.12;93303.81;4727288;30;20047;-86
2022/06/29 11:20:38;;;;;;;116.13;35.90;;;;;;;21.63;66.16;93313.44;4704397;30;20078;-88
2022/06/29 11:23:05;;;;;;;73.13;32.50;;;;;;;21.55;65.70;93318.84;4686650;30;20055;-88
2022/06/29 11:25:35;;;;;;;124.80;35.53;;;;;;;21.58;65.78;93317.78;4698102;30;20086;-86
2022/06/29 11:28:00;;;;;;;75.00;29.73;;;;;;;21.69;65.33;93312.00;4695509;30;20055;-88
2022/06/29 11:30:26;;;;;;;92.38;38.72;;;;;;;21.72;65.11;93296.44;4696516;30;20055;-89
2022/06/29 11:32:51;;;;;;;126.13;65.60;;;;;;;21.80;65.04;93297.28;4732103;30;20048;-88
2022/06/29 11:35:29;;;;;;;123.53;62.55;;;;;;;21.81;64.57;93305.00;4740694;30;20040;-86
2022/06/29 11:38:01;;;;;;;372.88;185.40;;;;;;;21.91;64.36;93313.50;4703754;30;20048;-86
2022/06/29 11:40:34;;;;;;;137.95;61.35;;;;;;;21.83;64.42;93310.72;4678098;30;20055;-89
2022/06/29 11:43:07;;;;;;;122.03;48.95;;;;;;;21.91;64.05;93313.50;4690691;30;20057;-84
2022/06/29 11:45:39;;;;;;;80.35;26.70;;;;;;;21.94;63.66;93306.94;4691862;30;20084;-85
2022/06/29 11:48:24;;;;;;;60.28;29.30;;;;;;;21.93;63.72;93316.47;4684234;30;20071;-86